Time;durP1;ratioP1;P1;durP2;ratioP2;P2;SDS_P1;SDS_P2;PMS_P1;PMS_P2;Temp;Humidity;BMP_temperature;BMP_pressure;BME280_temperature;BME280_humidity;BME280_pressure;Samples;Min_cycle;Max_cycle;Signal;HPM_P1;HPM_P2
2022/01/12 00:02:06;;;;;;;13.37;8.73;;;;;;;3.40;55.48;98287.03;5068037;28;20887;-71
2022/01/12 00:04:32;;;;;;;11.90;8.67;;;;;;;3.45;55.84;98287.59;5074305;28;20202;-72
2022/01/12 00:06:57;;;;;;;11.10;8.50;;;;;;;3.38;55.33;98302.63;5073848;28;20460;-72
2022/01/12 00:09:23;;;;;;;12.80;8.80;;;;;;;3.29;55.92;98302.28;5072859;28;20591;-74
2022/01/12 00:11:49;;;;;;;13.20;8.90;;;;;;;3.09;56.91;98300.72;5063161;28;20191;-72
2022/01/12 00:14:15;;;;;;;13.93;9.30;;;;;;;2.98;57.86;98298.69;5037076;28;20210;-71
2022/01/12 00:16:46;;;;;;;15.00;9.60;;;;;;;2.84;58.36;98302.81;5074188;28;20183;-72
2022/01/12 00:19:11;;;;;;;14.43;9.83;;;;;;;2.74;58.79;98296.41;5072615;28;20194;-72
2022/01/12 00:21:37;;;;;;;18.80;9.17;;;;;;;2.55;59.27;98299.88;5073119;28;20429;-72
2022/01/12 00:24:03;;;;;;;13.70;9.83;;;;;;;2.55;59.46;98312.84;5062118;28;20216;-71
2022/01/12 00:34:26;;;;;;;15.97;10.47;;;;;;;2.56;59.33;98304.16;5074904;28;20441;-72
2022/01/12 00:36:52;;;;;;;15.90;10.43;;;;;;;2.51;59.85;98300.13;5075088;28;20508;-73
2022/01/12 00:39:17;;;;;;;16.43;9.63;;;;;;;2.53;60.03;98309.47;5071991;28;20191;-73
2022/01/12 00:41:43;;;;;;;19.40;8.90;;;;;;;2.51;59.83;98311.31;5072392;28;20182;-73
2022/01/12 00:44:10;;;;;;;15.60;10.13;;;;;;;2.52;60.06;98306.97;5069771;28;20217;-72
2022/01/12 00:46:38;;;;;;;13.70;9.47;;;;;;;2.55;60.11;98302.47;5070406;28;20702;-73
2022/01/12 00:49:04;;;;;;;14.33;8.87;;;;;;;2.67;59.67;98295.88;5052950;28;20537;-72
2022/01/12 00:51:33;;;;;;;13.97;9.50;;;;;;;2.55;59.93;98306.84;5069978;28;20445;-72
2022/01/12 00:54:01;;;;;;;13.70;9.20;;;;;;;2.41;60.43;98305.75;5069553;28;20595;-72
2022/01/12 00:56:27;;;;;;;12.80;8.70;;;;;;;2.55;60.11;98315.41;5069996;28;20420;-72
2022/01/12 00:58:53;;;;;;;12.63;8.40;;;;;;;2.23;60.96;98322.13;5062995;28;20421;-73
2022/01/12 01:01:20;;;;;;;16.03;8.90;;;;;;;2.36;60.47;98317.22;5060769;28;20189;-73
2022/01/12 01:03:49;;;;;;;12.10;8.57;;;;;;;2.36;60.71;98322.41;5046909;28;20942;-71
2022/01/12 01:06:16;;;;;;;11.87;8.50;;;;;;;2.48;60.42;98324.41;5069372;28;20472;-72
2022/01/12 01:08:43;;;;;;;13.37;8.57;;;;;;;2.52;60.23;98323.31;5070766;28;20427;-72
2022/01/12 01:11:09;;;;;;;11.43;7.93;;;;;;;2.64;59.96;98316.72;5069236;28;20428;-71
2022/01/12 01:13:42;;;;;;;11.77;8.83;;;;;;;2.72;59.75;98319.78;5068350;28;20436;-72
2022/01/12 01:16:23;;;;;;;12.37;8.80;;;;;;;2.72;59.25;98329.31;5069575;28;20549;-71
2022/01/12 01:27:01;;;;;;;24.27;16.30;;;;;;;2.35;59.94;98331.09;5069448;28;21014;-72
2022/01/12 01:29:27;;;;;;;21.30;14.60;;;;;;;2.45;60.10;98332.31;5063038;28;20424;-72
2022/01/12 01:31:52;;;;;;;17.03;12.17;;;;;;;2.45;59.61;98327.13;5068829;28;20481;-73
2022/01/12 01:34:18;;;;;;;16.53;10.23;;;;;;;2.54;59.48;98336.22;5072605;28;20202;-72
2022/01/12 01:36:52;;;;;;;12.13;8.00;;;;;;;2.52;59.43;98332.84;5074952;28;20181;-72
2022/01/12 01:39:22;;;;;;;12.67;8.50;;;;;;;2.43;59.28;98335.00;5074871;28;20190;-71
2022/01/12 01:41:51;;;;;;;12.93;9.10;;;;;;;1.75;61.06;98338.09;5066229;28;20935;-73
2022/01/12 01:44:35;;;;;;;15.43;9.33;;;;;;;2.02;61.11;98334.34;5072831;28;21120;-71
2022/01/12 01:55:16;;;;;;;13.60;8.40;;;;;;;1.99;60.38;98320.66;5073947;28;20490;-73
2022/01/12 01:57:41;;;;;;;13.50;8.77;;;;;;;2.17;60.23;98317.28;5067910;28;20469;-71
2022/01/12 02:00:10;;;;;;;11.17;8.80;;;;;;;2.27;59.90;98308.16;5071265;28;21024;-72
2022/01/12 02:02:35;;;;;;;11.50;8.73;;;;;;;2.24;60.25;98311.75;5065742;28;20244;-72
2022/01/12 02:05:01;;;;;;;20.43;8.40;;;;;;;2.32;59.87;98310.53;5073502;28;20441;-71
2022/01/12 02:07:27;;;;;;;11.00;7.80;;;;;;;2.29;59.67;98312.34;5073393;28;20185;-71
2022/01/12 02:09:53;;;;;;;13.30;9.00;;;;;;;2.23;59.63;98323.00;5073052;28;20217;-72
2022/01/12 02:12:28;;;;;;;10.40;7.70;;;;;;;2.32;59.68;98323.47;5072439;28;20767;-72
2022/01/12 02:14:58;;;;;;;14.20;9.13;;;;;;;2.33;59.52;98327.72;5073967;28;20448;-71
2022/01/12 02:17:30;;;;;;;10.93;7.60;;;;;;;2.32;59.69;98326.91;5071905;28;20421;-71
2022/01/12 02:20:25;;;;;;;13.30;8.83;;;;;;;2.35;59.47;98331.91;5072564;28;20516;-70
2022/01/12 02:36:54;;;;;;;11.33;8.40;;;;;;;1.65;61.00;98342.03;5059991;28;20419;-72
2022/01/12 02:42:04;;;;;;;15.97;8.87;;;;;;;1.83;61.00;98332.59;5072645;28;20429;-71
2022/01/12 02:55:25;;;;;;;12.13;7.80;;;;;;;2.10;59.55;98330.47;5056714;28;20433;-71
2022/01/12 02:57:51;;;;;;;12.40;9.30;;;;;;;2.06;59.94;98328.09;5064532;28;20432;-72
2022/01/12 03:00:19;;;;;;;11.97;8.60;;;;;;;2.05;59.92;98329.88;5070724;28;20194;-70
2022/01/12 03:02:50;;;;;;;12.30;8.63;;;;;;;2.02;60.01;98324.84;5065550;28;20277;-70
2022/01/12 03:05:44;;;;;;;12.90;9.10;;;;;;;2.10;59.83;98329.66;5063270;28;20454;-70
2022/01/12 03:08:12;;;;;;;13.83;8.83;;;;;;;2.11;59.57;98331.34;5071888;28;20793;-71
2022/01/12 03:10:37;;;;;;;13.07;8.83;;;;;;;2.09;59.60;98317.63;5071876;28;20420;-71
2022/01/12 03:13:03;;;;;;;14.20;9.77;;;;;;;2.07;59.76;98322.88;5070663;28;20838;-71
2022/01/12 03:15:28;;;;;;;12.83;9.77;;;;;;;2.07;59.45;98327.19;5071860;28;20208;-70
2022/01/12 03:17:54;;;;;;;16.10;10.53;;;;;;;1.86;60.27;98335.03;5071975;28;20186;-72
2022/01/12 03:20:19;;;;;;;14.30;9.77;;;;;;;1.91;60.27;98334.84;5070286;28;20320;-72
2022/01/12 03:22:45;;;;;;;12.13;8.63;;;;;;;1.95;59.84;98333.78;5068511;28;20186;-71
2022/01/12 03:25:11;;;;;;;17.83;9.77;;;;;;;1.94;60.00;98329.53;5071749;28;20237;-72
2022/01/12 03:27:38;;;;;;;15.97;10.20;;;;;;;1.95;60.02;98334.63;5066660;28;20669;-70
2022/01/12 03:30:05;;;;;;;14.90;9.33;;;;;;;1.89;59.82;98328.88;5069874;28;20227;-69
2022/01/12 03:32:40;;;;;;;12.90;9.80;;;;;;;1.94;59.97;98327.75;5072053;28;20433;-70
2022/01/12 03:35:25;;;;;;;17.83;10.03;;;;;;;1.94;59.71;98334.69;5071482;28;20792;-70
2022/01/12 03:38:19;;;;;;;15.47;9.70;;;;;;;1.16;61.26;98360.47;5070370;28;20420;-70
2022/01/12 03:40:39;;;;;;;13.50;9.03;;;;;;;1.18;62.11;98361.25;5070521;28;20424;-72
2022/01/12 03:43:05;;;;;;;12.73;9.73;;;;;;;1.16;62.07;98365.66;5071375;28;20439;-71
2022/01/12 03:45:30;;;;;;;12.67;9.30;;;;;;;1.30;61.49;98363.31;5071201;28;20214;-69
2022/01/12 03:47:56;;;;;;;14.50;10.00;;;;;;;1.41;62.13;98362.00;5071624;28;20656;-70
2022/01/12 03:50:21;;;;;;;20.10;10.30;;;;;;;1.43;61.92;98358.47;5070999;28;20239;-70
2022/01/12 03:52:47;;;;;;;19.00;10.53;;;;;;;1.35;61.45;98361.38;5071372;28;20756;-69
2022/01/12 03:55:13;;;;;;;16.03;10.40;;;;;;;1.19;61.80;98361.22;5069657;28;20731;-70
2022/01/12 03:57:38;;;;;;;15.43;10.70;;;;;;;1.47;61.49;98366.94;5055815;28;20539;-71
2022/01/12 04:00:04;;;;;;;18.73;12.53;;;;;;;1.57;61.02;98368.19;5066757;28;20661;-70
2022/01/12 04:02:32;;;;;;;19.80;14.03;;;;;;;1.57;61.24;98365.63;5064830;28;20186;-70
2022/01/12 04:05:10;;;;;;;22.10;12.80;;;;;;;1.62;60.74;98378.31;5071119;28;20488;-69
2022/01/12 04:10:20;;;;;;;17.37;10.07;;;;;;;1.55;60.71;98374.34;5071372;28;20470;-69
2022/01/12 04:12:46;;;;;;;15.90;10.50;;;;;;;1.55;61.00;98370.00;5071371;28;20518;-72
2022/01/12 04:15:11;;;;;;;14.53;9.80;;;;;;;1.61;60.85;98367.16;5068558;28;20683;-69
2022/01/12 04:17:37;;;;;;;15.00;9.47;;;;;;;1.63;60.29;98360.19;5057963;28;20967;-70
2022/01/12 04:20:03;;;;;;;15.60;10.50;;;;;;;1.64;60.86;98363.59;5068214;28;20186;-70
2022/01/12 04:25:13;;;;;;;16.13;10.90;;;;;;;1.59;60.78;98343.13;5071046;28;20452;-71
2022/01/12 04:27:39;;;;;;;15.43;11.13;;;;;;;1.58;60.59;98346.63;5065642;28;20436;-71
2022/01/12 04:30:06;;;;;;;18.70;10.90;;;;;;;1.57;60.61;98349.28;5050254;28;20657;-70
2022/01/12 04:32:35;;;;;;;15.27;10.03;;;;;;;1.31;61.23;98354.66;5070314;28;20280;-70
2022/01/12 04:35:01;;;;;;;15.20;9.70;;;;;;;1.48;61.06;98360.84;5070769;28;20441;-71
2022/01/12 04:37:26;;;;;;;15.90;11.17;;;;;;;1.47;61.17;98360.00;5056924;28;20438;-73
2022/01/12 04:39:52;;;;;;;14.83;10.80;;;;;;;1.37;61.03;98357.00;5066408;28;20190;-70
2022/01/12 04:42:17;;;;;;;16.17;10.57;;;;;;;1.20;61.53;98367.19;5051564;28;20256;-68
2022/01/12 04:44:45;;;;;;;18.13;11.77;;;;;;;1.24;61.49;98373.94;5059214;28;20563;-72
2022/01/12 04:47:27;;;;;;;18.70;12.93;;;;;;;1.14;61.32;98386.38;5050567;28;20263;-72
2022/01/12 04:49:52;;;;;;;18.50;11.53;;;;;;;1.20;61.15;98380.94;5058088;28;20422;-71
2022/01/12 04:52:18;;;;;;;17.93;11.50;;;;;;;1.28;61.09;98375.47;5061890;28;20847;-70
2022/01/12 04:54:43;;;;;;;19.53;11.87;;;;;;;1.31;61.16;98377.91;5062553;28;20218;-71
2022/01/12 04:57:09;;;;;;;15.87;11.60;;;;;;;1.31;61.08;98385.66;5070251;28;20225;-70
2022/01/12 04:59:40;;;;;;;16.30;11.03;;;;;;;1.24;60.88;98392.00;5050301;28;20183;-72
2022/01/12 05:07:46;;;;;;;45.27;16.13;;;;;;;1.09;61.54;98408.13;5044176;28;20424;-73
2022/01/12 05:12:55;;;;;;;26.00;14.13;;;;;;;1.13;61.26;98401.94;5054523;28;20443;-70
2022/01/12 05:15:28;;;;;;;22.27;12.90;;;;;;;1.14;61.30;98403.59;5051935;28;20821;-74
2022/01/12 05:17:54;;;;;;;20.40;12.57;;;;;;;1.17;61.57;98398.31;5054603;28;20474;-70
2022/01/12 05:20:21;;;;;;;19.07;12.57;;;;;;;1.20;61.15;98411.13;5053645;28;20505;-70
2022/01/12 05:22:46;;;;;;;19.10;13.40;;;;;;;1.21;60.98;98400.69;5041344;28;21211;-70
2022/01/12 05:25:12;;;;;;;21.87;13.57;;;;;;;1.22;60.67;98406.72;5052984;28;20448;-70
2022/01/12 05:27:37;;;;;;;21.20;13.30;;;;;;;1.21;60.78;98417.97;5062697;28;20261;-72
2022/01/12 05:30:03;;;;;;;23.47;14.00;;;;;;;1.06;60.51;98422.03;5053597;28;20200;-72
2022/01/12 05:32:29;;;;;;;19.23;14.00;;;;;;;1.04;61.17;98424.66;5056983;28;20680;-70
2022/01/12 05:34:58;;;;;;;22.17;14.00;;;;;;;1.09;61.47;98423.63;5056907;28;20285;-73
2022/01/12 05:37:24;;;;;;;24.80;14.33;;;;;;;1.10;61.34;98433.88;5054503;28;20239;-72
2022/01/12 05:39:50;;;;;;;23.30;14.90;;;;;;;1.11;61.20;98440.75;5053555;28;20503;-72
2022/01/12 05:42:16;;;;;;;23.23;14.10;;;;;;;1.08;60.86;98435.69;5056223;28;20516;-70
2022/01/12 05:44:42;;;;;;;24.80;14.70;;;;;;;0.94;61.70;98438.00;5059039;28;20289;-71
2022/01/12 05:47:18;;;;;;;22.47;15.00;;;;;;;0.95;61.80;98437.09;5051175;28;20238;-70
2022/01/12 05:49:45;;;;;;;22.47;14.97;;;;;;;1.03;62.02;98435.88;5052816;28;20433;-71
2022/01/12 05:52:11;;;;;;;21.80;14.90;;;;;;;1.07;61.86;98427.13;5053088;28;20429;-71
2022/01/12 05:54:38;;;;;;;24.73;15.30;;;;;;;0.86;62.45;98422.81;5053530;28;20448;-72
2022/01/12 05:57:04;;;;;;;22.00;13.70;;;;;;;0.86;63.07;98415.91;5053442;28;20438;-72
2022/01/12 05:59:30;;;;;;;24.23;14.10;;;;;;;1.02;62.65;98420.47;5053144;28;20847;-71
2022/01/12 06:01:55;;;;;;;23.50;15.00;;;;;;;0.99;62.26;98420.56;5053067;28;20437;-73
2022/01/12 06:04:21;;;;;;;20.70;13.53;;;;;;;1.04;62.09;98429.00;5053175;28;20555;-69
2022/01/12 06:06:46;;;;;;;21.83;14.20;;;;;;;1.10;62.11;98433.06;5054506;28;20222;-71
2022/01/12 06:09:12;;;;;;;26.17;14.90;;;;;;;1.12;61.91;98433.84;5054972;28;20607;-72
2022/01/12 06:11:38;;;;;;;22.77;15.27;;;;;;;1.07;61.74;98429.69;5051563;28;20183;-73
2022/01/12 06:14:03;;;;;;;23.20;15.33;;;;;;;1.00;61.91;98442.91;5053396;28;20700;-71
2022/01/12 06:16:29;;;;;;;23.47;14.33;;;;;;;0.99;62.38;98442.09;5051773;28;20179;-70
2022/01/12 06:18:56;;;;;;;23.77;14.60;;;;;;;1.05;62.05;98448.75;5061308;28;20201;-72
2022/01/12 06:21:23;;;;;;;22.87;14.57;;;;;;;1.06;62.12;98453.00;5050999;28;20217;-71
2022/01/12 06:23:48;;;;;;;22.10;15.40;;;;;;;1.07;61.75;98452.94;5056427;28;20421;-69
2022/01/12 06:26:14;;;;;;;24.70;15.17;;;;;;;1.12;61.99;98457.09;5060522;28;20872;-70
2022/01/12 06:28:42;;;;;;;27.37;16.50;;;;;;;0.95;62.31;98461.19;5052310;28;20237;-71
2022/01/12 06:31:10;;;;;;;21.80;14.83;;;;;;;0.86;62.61;98472.69;5052766;28;20190;-70
2022/01/12 06:33:40;;;;;;;25.60;15.87;;;;;;;0.86;62.88;98477.88;5052780;28;20990;-71
2022/01/12 06:36:06;;;;;;;23.33;15.40;;;;;;;0.88;62.50;98473.50;5043408;28;20831;-71
2022/01/12 06:38:32;;;;;;;23.20;15.43;;;;;;;0.86;62.87;98479.63;5055523;28;20437;-71
2022/01/12 06:40:58;;;;;;;23.30;16.10;;;;;;;0.77;63.05;98479.06;5056301;28;20650;-71
2022/01/12 06:43:23;;;;;;;28.57;18.23;;;;;;;0.68;64.03;98473.44;5054248;28;20659;-69
2022/01/12 06:45:49;;;;;;;34.87;18.53;;;;;;;0.64;64.24;98464.94;5044348;28;20225;-70
2022/01/12 06:48:14;;;;;;;30.37;18.87;;;;;;;0.58;64.47;98466.03;5088101;28;20558;-69
2022/01/12 06:50:40;;;;;;;29.63;19.00;;;;;;;0.69;64.15;98470.78;5072632;28;20191;-72
2022/01/12 06:53:05;;;;;;;31.30;17.80;;;;;;;0.67;64.19;98467.41;5073070;28;20270;-71
2022/01/12 06:55:31;;;;;;;28.03;17.60;;;;;;;0.73;64.60;98462.03;5071155;28;20617;-71
2022/01/12 06:57:57;;;;;;;29.20;17.80;;;;;;;0.81;64.20;98469.47;5071451;28;20192;-71
2022/01/12 07:00:22;;;;;;;28.50;17.83;;;;;;;0.74;64.22;98468.88;5055894;28;20239;-70
2022/01/12 07:02:48;;;;;;;28.90;17.67;;;;;;;0.75;64.15;98457.66;5063016;28;20199;-72
2022/01/12 07:05:13;;;;;;;33.17;18.77;;;;;;;0.79;64.15;98468.69;5078671;28;20689;-68
2022/01/12 07:07:39;;;;;;;26.33;16.90;;;;;;;0.74;63.92;98479.22;5071884;28;20193;-72
2022/01/12 07:10:05;;;;;;;26.47;17.63;;;;;;;0.81;63.87;98481.53;5072757;28;20284;-70
2022/01/12 07:12:30;;;;;;;29.07;18.43;;;;;;;0.81;63.29;98473.78;5072881;28;20240;-71
2022/01/12 07:14:56;;;;;;;26.90;16.50;;;;;;;0.69;63.86;98485.44;5064680;28;20449;-70
2022/01/12 07:17:22;;;;;;;33.60;17.70;;;;;;;0.75;63.63;98470.56;5066304;28;20185;-69
2022/01/12 07:19:47;;;;;;;25.90;16.30;;;;;;;0.70;63.49;98480.22;5072992;28;20220;-69
2022/01/12 07:22:13;;;;;;;28.70;17.43;;;;;;;0.66;63.61;98488.13;5068179;28;20189;-72
2022/01/12 07:24:38;;;;;;;27.30;17.17;;;;;;;0.66;63.82;98491.53;5072816;28;20247;-71
2022/01/12 07:27:04;;;;;;;26.77;17.50;;;;;;;0.56;63.79;98485.06;5072114;28;20275;-71
2022/01/12 07:29:30;;;;;;;29.27;18.20;;;;;;;0.66;63.38;98485.56;5065240;28;20186;-69
2022/01/12 07:31:55;;;;;;;31.83;17.87;;;;;;;0.59;63.97;98480.63;5073175;28;20192;-71
2022/01/12 07:34:21;;;;;;;30.73;19.00;;;;;;;0.63;63.93;98486.50;5082533;28;20203;-70
2022/01/12 07:36:46;;;;;;;28.00;17.10;;;;;;;0.78;63.45;98500.56;5082678;28;20182;-71
2022/01/12 07:39:12;;;;;;;26.37;16.43;;;;;;;0.72;63.95;98493.03;5075753;28;20193;-69
2022/01/12 07:41:38;;;;;;;42.97;17.60;;;;;;;0.65;63.78;98497.59;5066869;28;20190;-70
2022/01/12 07:44:04;;;;;;;26.77;17.23;;;;;;;0.67;64.11;98497.56;5071925;28;20217;-69
2022/01/12 07:46:29;;;;;;;29.77;17.67;;;;;;;0.70;64.16;98490.53;5079819;28;20229;-71
2022/01/12 07:48:55;;;;;;;30.17;17.10;;;;;;;0.52;64.64;98501.53;5088174;28;20422;-71
2022/01/12 07:51:21;;;;;;;25.17;16.77;;;;;;;0.74;64.42;98502.44;5082772;28;20924;-71
2022/01/12 07:53:46;;;;;;;26.03;16.43;;;;;;;0.83;63.59;98502.97;5082567;28;20193;-71
2022/01/12 07:56:12;;;;;;;28.13;16.90;;;;;;;0.85;63.74;98501.19;5074002;28;20178;-71
2022/01/12 07:58:38;;;;;;;28.40;16.87;;;;;;;0.85;64.19;98501.19;5078770;28;20178;-71
2022/01/12 08:01:04;;;;;;;28.20;16.43;;;;;;;0.87;63.37;98504.53;5080132;28;20177;-70
2022/01/12 08:03:29;;;;;;;25.80;16.57;;;;;;;0.82;63.44;98509.03;5066624;28;20181;-70
2022/01/12 08:05:56;;;;;;;21.20;15.40;;;;;;;0.94;63.02;98530.97;5071083;28;20962;-71
2022/01/12 08:08:22;;;;;;;24.87;16.50;;;;;;;1.12;62.78;98547.47;5072214;28;20201;-71
2022/01/12 08:10:48;;;;;;;26.70;16.93;;;;;;;1.19;62.74;98556.66;5070774;28;20517;-71
2022/01/12 08:13:13;;;;;;;32.03;19.33;;;;;;;1.22;62.40;98557.38;5071703;28;20178;-70
2022/01/12 08:15:39;;;;;;;28.07;17.33;;;;;;;1.42;62.33;98566.09;5067726;28;20207;-72
2022/01/12 08:18:05;;;;;;;30.27;18.57;;;;;;;1.44;61.71;98568.59;5069352;28;20205;-72
2022/01/12 08:20:31;;;;;;;51.13;26.43;;;;;;;1.59;61.45;98573.16;5053865;28;20489;-71
2022/01/12 08:22:56;;;;;;;24.93;17.10;;;;;;;1.66;61.01;98566.81;5064792;28;20372;-71
2022/01/12 08:25:23;;;;;;;34.60;20.77;;;;;;;1.80;61.09;98566.28;5061092;28;20466;-68
2022/01/12 08:27:48;;;;;;;28.20;17.33;;;;;;;1.72;60.85;98559.72;5071610;28;20188;-72
2022/01/12 08:30:19;;;;;;;27.77;17.43;;;;;;;1.64;60.83;98558.28;5071464;28;20500;-69
2022/01/12 08:32:46;;;;;;;32.70;16.23;;;;;;;1.56;60.93;98570.69;5046618;28;20718;-70
2022/01/12 08:35:11;;;;;;;31.20;19.60;;;;;;;1.53;60.74;98571.66;5068810;28;20955;-70
2022/01/12 08:37:37;;;;;;;27.70;15.73;;;;;;;1.45;60.46;98571.13;5071488;28;20412;-70
2022/01/12 08:40:04;;;;;;;26.23;16.60;;;;;;;1.65;60.46;98562.56;5070127;28;20175;-70
2022/01/12 08:42:29;;;;;;;25.63;16.00;;;;;;;1.71;60.12;98550.28;5071659;28;20783;-70
2022/01/12 08:44:59;;;;;;;23.40;15.63;;;;;;;1.87;59.82;98555.66;5064265;28;20443;-70
2022/01/12 08:47:26;;;;;;;23.73;14.90;;;;;;;1.85;59.27;98550.56;5068969;28;20209;-69
2022/01/12 08:49:51;;;;;;;23.10;14.87;;;;;;;2.10;58.70;98568.44;5057156;28;20934;-69
2022/01/12 08:52:17;;;;;;;24.33;14.90;;;;;;;1.95;58.68;98572.53;5073956;28;20424;-70
2022/01/12 08:54:43;;;;;;;24.03;15.57;;;;;;;1.51;59.23;98564.88;5074787;28;20194;-71
2022/01/12 08:57:08;;;;;;;22.30;14.33;;;;;;;1.82;58.40;98584.28;5073469;28;20254;-69
2022/01/12 08:59:34;;;;;;;24.67;13.43;;;;;;;1.75;58.04;98585.47;5067149;28;20190;-69
2022/01/12 09:02:00;;;;;;;35.90;16.97;;;;;;;1.76;58.53;98576.81;5066835;28;20802;-71
2022/01/12 09:04:27;;;;;;;23.30;15.07;;;;;;;2.12;58.27;98569.22;5075467;28;20542;-69
2022/01/12 09:06:53;;;;;;;22.63;15.80;;;;;;;2.14;57.37;98561.41;5075166;28;20980;-69
2022/01/12 09:09:19;;;;;;;26.07;17.60;;;;;;;2.04;57.50;98563.56;5072547;28;20422;-69
2022/01/12 09:11:45;;;;;;;28.73;17.17;;;;;;;2.21;57.45;98578.34;5074312;28;20425;-70
2022/01/12 09:14:11;;;;;;;27.93;15.20;;;;;;;2.18;57.11;98583.63;5072907;28;20539;-70
2022/01/12 09:16:36;;;;;;;20.30;14.03;;;;;;;2.22;57.07;98597.28;5069464;28;20189;-68
2022/01/12 09:19:02;;;;;;;21.60;13.50;;;;;;;2.37;56.49;98603.56;5073314;28;20182;-71
2022/01/12 09:21:28;;;;;;;20.80;14.83;;;;;;;2.27;56.54;98609.13;5044955;28;20708;-70
2022/01/12 09:23:54;;;;;;;21.80;14.50;;;;;;;2.34;56.33;98608.88;5072578;28;20532;-68
2022/01/12 09:26:20;;;;;;;33.07;15.37;;;;;;;2.44;56.62;98607.56;5066163;28;20251;-69
2022/01/12 09:28:47;;;;;;;28.43;13.93;;;;;;;2.54;56.64;98606.25;5074198;28;20181;-71
2022/01/12 09:31:13;;;;;;;26.77;16.70;;;;;;;2.36;56.89;98614.81;5072675;28;20467;-69
2022/01/12 09:33:39;;;;;;;22.00;14.40;;;;;;;2.61;56.23;98620.63;5066681;28;20508;-70
2022/01/12 09:36:05;;;;;;;20.30;13.37;;;;;;;2.51;55.58;98624.53;5076615;28;20190;-71
2022/01/12 09:38:30;;;;;;;26.53;15.60;;;;;;;2.35;56.48;98619.13;5085938;28;20194;-70
2022/01/12 09:40:56;;;;;;;22.80;13.07;;;;;;;2.40;56.32;98617.22;5086070;28;20254;-72
2022/01/12 09:43:24;;;;;;;18.90;13.17;;;;;;;2.43;56.21;98608.47;5076599;28;20608;-72
2022/01/12 09:45:53;;;;;;;20.03;13.20;;;;;;;2.50;56.32;98596.09;5072602;28;20215;-72
2022/01/12 09:48:19;;;;;;;20.80;12.90;;;;;;;2.45;55.43;98581.63;5072684;28;20425;-71
2022/01/12 09:50:45;;;;;;;22.07;13.80;;;;;;;2.61;55.77;98591.28;5072885;28;20453;-72
2022/01/12 09:53:10;;;;;;;20.57;12.73;;;;;;;2.60;55.61;98599.94;5074096;28;20929;-70
2022/01/12 09:55:36;;;;;;;19.37;13.60;;;;;;;2.88;55.22;98609.06;5060054;28;20352;-71
2022/01/12 09:58:02;;;;;;;21.17;14.10;;;;;;;3.17;54.51;98620.69;5071630;28;20236;-70
2022/01/12 10:00:28;;;;;;;18.77;12.13;;;;;;;3.05;53.96;98634.22;5055339;28;20657;-71
2022/01/12 10:02:54;;;;;;;20.47;13.07;;;;;;;2.06;56.36;98626.41;5067995;28;20299;-72
2022/01/12 10:05:28;;;;;;;17.53;12.13;;;;;;;2.82;54.74;98630.91;5066509;28;20437;-71
2022/01/12 10:07:54;;;;;;;18.07;11.60;;;;;;;3.15;53.53;98632.03;5070012;28;20416;-71
2022/01/12 10:10:19;;;;;;;18.93;11.33;;;;;;;3.00;52.69;98628.41;5072839;28;20762;-71
2022/01/12 10:12:53;;;;;;;19.17;11.70;;;;;;;3.27;53.37;98625.47;5065898;28;20189;-70
2022/01/12 10:15:19;;;;;;;22.67;14.90;;;;;;;3.43;52.70;98636.78;5073786;28;20198;-71
2022/01/12 10:17:46;;;;;;;17.17;10.90;;;;;;;3.38;52.05;98638.75;5068838;28;20428;-71
2022/01/12 10:20:14;;;;;;;13.13;10.27;;;;;;;3.64;50.93;98623.72;5072480;28;20197;-72
2022/01/12 10:23:07;;;;;;;16.03;10.60;;;;;;;3.64;51.67;98613.34;5064358;28;20470;-72
2022/01/12 10:25:34;;;;;;;16.90;11.20;;;;;;;4.00;50.60;98620.25;5072177;28;20487;-72
2022/01/12 10:28:12;;;;;;;20.13;12.90;;;;;;;3.78;50.30;98621.28;5072970;28;20463;-70
2022/01/12 10:30:37;;;;;;;17.53;11.27;;;;;;;4.06;50.49;98619.09;5060439;28;20425;-71
2022/01/12 10:33:08;;;;;;;20.30;12.20;;;;;;;4.03;49.62;98617.50;5070824;28;20512;-71
2022/01/12 10:35:39;;;;;;;18.43;11.73;;;;;;;3.96;50.63;98613.53;5074032;28;20234;-71
2022/01/12 10:38:06;;;;;;;13.37;10.17;;;;;;;4.13;50.12;98621.31;5073632;28;20428;-70
2022/01/12 10:40:50;;;;;;;17.27;11.80;;;;;;;4.08;49.47;98632.84;5073621;28;20429;-71
2022/01/12 10:43:28;;;;;;;19.27;12.17;;;;;;;4.22;49.91;98645.13;5064574;28;20414;-70
2022/01/12 10:45:54;;;;;;;17.23;11.53;;;;;;;4.11;50.24;98633.53;5060595;28;21069;-71
2022/01/12 10:48:20;;;;;;;16.07;11.47;;;;;;;4.31;50.01;98639.44;5065683;28;20433;-69
2022/01/12 10:50:56;;;;;;;29.17;19.20;;;;;;;4.24;49.85;98632.91;5074326;28;20221;-71
2022/01/12 10:53:36;;;;;;;18.77;13.10;;;;;;;4.34;49.62;98635.88;5070966;28;20190;-72
2022/01/12 10:56:08;;;;;;;18.50;12.23;;;;;;;3.68;51.05;98646.84;5070538;28;20466;-69
2022/01/12 10:58:36;;;;;;;17.30;12.10;;;;;;;3.31;52.55;98653.75;5069638;28;20426;-73
2022/01/12 11:01:02;;;;;;;19.23;14.50;;;;;;;3.62;52.60;98635.91;5069656;28;20938;-71
2022/01/12 11:03:29;;;;;;;19.83;13.73;;;;;;;4.18;50.32;98641.00;5066788;28;20424;-70
2022/01/12 11:05:55;;;;;;;28.10;17.13;;;;;;;4.37;50.15;98643.50;5073211;28;20923;-71
2022/01/12 11:08:24;;;;;;;21.50;14.80;;;;;;;4.22;50.71;98635.56;5038875;28;20431;-71
2022/01/12 11:10:49;;;;;;;37.90;19.60;;;;;;;4.22;50.88;98634.72;5066157;28;20525;-71
2022/01/12 11:13:15;;;;;;;45.30;25.73;;;;;;;3.80;51.91;98639.38;5087721;28;20438;-70
2022/01/12 11:15:41;;;;;;;105.80;52.50;;;;;;;3.96;52.27;98636.88;5068958;28;20284;-70
2022/01/12 11:18:07;;;;;;;36.67;23.03;;;;;;;4.19;51.46;98624.50;5068213;28;20217;-73
2022/01/12 11:20:33;;;;;;;22.90;15.57;;;;;;;4.33;51.61;98622.03;5072350;28;20324;-72
2022/01/12 11:23:05;;;;;;;17.53;11.97;;;;;;;4.15;50.59;98632.47;5060907;28;21197;-72
2022/01/12 11:25:32;;;;;;;19.67;13.70;;;;;;;4.25;50.02;98639.78;5066228;28;20913;-70
2022/01/12 11:28:16;;;;;;;24.83;16.70;;;;;;;4.21;50.46;98620.06;5064968;28;20443;-74
2022/01/12 11:31:08;;;;;;;30.60;20.10;;;;;;;4.40;50.94;98628.63;5072584;28;20943;-70
2022/01/12 11:33:33;;;;;;;22.83;14.80;;;;;;;4.32;51.38;98632.53;5057517;28;20427;-72
2022/01/12 11:36:02;;;;;;;21.10;14.03;;;;;;;3.75;52.19;98630.97;5071428;28;20516;-71
2022/01/12 11:38:35;;;;;;;23.23;15.83;;;;;;;4.24;51.71;98619.94;5072485;28;20204;-72
2022/01/12 11:41:12;;;;;;;20.50;14.80;;;;;;;4.61;50.61;98621.47;5072255;28;20539;-71
2022/01/12 11:43:44;;;;;;;24.60;16.13;;;;;;;4.53;50.77;98612.41;5072906;28;20445;-71
2022/01/12 11:46:12;;;;;;;20.27;14.30;;;;;;;4.31;51.36;98603.09;5068462;28;20464;-70
2022/01/12 11:48:44;;;;;;;21.50;14.93;;;;;;;4.54;50.63;98593.28;5072756;28;20433;-72
2022/01/12 11:51:11;;;;;;;24.73;16.00;;;;;;;4.53;50.38;98592.47;5076655;28;20482;-74
2022/01/12 11:53:52;;;;;;;21.40;14.90;;;;;;;4.26;51.54;98589.53;5073577;28;20433;-74
2022/01/12 11:56:21;;;;;;;22.37;15.13;;;;;;;4.45;50.88;98574.69;5062690;28;20782;-72
2022/01/12 11:59:12;;;;;;;31.93;14.60;;;;;;;4.25;51.48;98551.53;5071878;28;20439;-71
2022/01/12 12:01:49;;;;;;;18.87;13.90;;;;;;;4.46;50.28;98550.41;5060690;28;20457;-73
2022/01/12 12:04:21;;;;;;;18.17;13.17;;;;;;;4.61;49.74;98566.09;5072093;28;20445;-71
2022/01/12 12:06:47;;;;;;;24.33;12.83;;;;;;;4.81;50.41;98558.97;5064319;28;20456;-70
2022/01/12 12:09:18;;;;;;;17.83;13.17;;;;;;;4.66;50.47;98556.31;5075704;28;20852;-71
2022/01/12 12:11:51;;;;;;;21.20;12.80;;;;;;;4.94;50.02;98559.16;5070600;28;20485;-70
2022/01/12 12:14:18;;;;;;;20.67;14.77;;;;;;;5.25;49.70;98557.47;5072559;28;20609;-71
2022/01/12 12:16:44;;;;;;;21.13;14.33;;;;;;;5.47;48.78;98557.09;5067770;28;20431;-74
2022/01/12 12:19:10;;;;;;;23.00;14.83;;;;;;;5.68;48.13;98549.84;5071314;28;20429;-72
2022/01/12 12:21:37;;;;;;;20.20;14.80;;;;;;;5.79;48.40;98541.44;5072553;28;20425;-73
2022/01/12 12:24:14;;;;;;;28.30;14.67;;;;;;;5.09;49.66;98553.13;5062461;28;20233;-71
2022/01/12 12:26:52;;;;;;;22.90;14.93;;;;;;;5.61;49.72;98551.97;5071590;28;20459;-71
2022/01/12 12:29:26;;;;;;;20.07;14.53;;;;;;;5.67;48.64;98545.56;5062528;28;20470;-71
2022/01/12 12:31:54;;;;;;;26.70;16.30;;;;;;;5.90;48.48;98541.63;5072816;28;20428;-72
2022/01/12 12:34:24;;;;;;;23.63;15.07;;;;;;;6.35;46.85;98538.16;5071418;28;20440;-72
2022/01/12 12:37:01;;;;;;;18.30;14.10;;;;;;;6.22;46.86;98548.50;5065651;28;20840;-71